createdAt,value
2017-08-29T00:00:20.297Z,100.0
2017-08-29T00:01:21.698Z,100.0
2017-08-29T00:02:23.072Z,100.0
2017-08-29T00:03:24.479Z,100.0
2017-08-29T00:04:25.853Z,100.0
2017-08-29T00:05:27.259Z,100.0
2017-08-29T00:06:28.634Z,100.0
2017-08-29T00:07:30.039Z,100.0
2017-08-29T00:08:31.409Z,100.0
2017-08-29T00:09:32.817Z,100.0
2017-08-29T00:10:34.186Z,100.0
2017-08-29T00:11:35.568Z,100.0
2017-08-29T00:12:36.951Z,100.0
2017-08-29T00:13:38.378Z,100.0
2017-08-29T00:14:39.747Z,100.0
2017-08-29T00:15:41.157Z,100.0
2017-08-29T00:16:42.531Z,100.0
2017-08-29T00:17:43.937Z,100.0
2017-08-29T00:18:45.311Z,100.0
2017-08-29T00:19:46.716Z,100.0
2017-08-29T00:20:48.090Z,100.0
2017-08-29T00:21:49.494Z,100.0
2017-08-29T00:22:50.870Z,100.0
2017-08-29T00:23:52.274Z,100.0
2017-08-29T00:24:53.652Z,100.0
2017-08-29T00:25:55.058Z,100.0
2017-08-29T00:26:56.434Z,100.0
2017-08-29T00:27:57.835Z,100.0
2017-08-29T00:28:59.208Z,100.0
2017-08-29T00:30:00.614Z,100.0
2017-08-29T00:31:01.996Z,100.0
2017-08-29T00:32:03.424Z,100.0
2017-08-29T00:33:04.770Z,100.0
2017-08-29T00:34:06.174Z,100.0
2017-08-29T00:35:07.552Z,100.0
2017-08-29T00:36:08.970Z,100.0
2017-08-29T00:37:10.334Z,100.0
2017-08-29T00:38:11.740Z,100.0
2017-08-29T00:39:13.109Z,100.0
2017-08-29T00:40:14.517Z,100.0
2017-08-29T00:41:15.892Z,100.0
2017-08-29T00:42:17.293Z,100.0
2017-08-29T00:43:18.666Z,100.0
2017-08-29T00:44:20.075Z,100.0
2017-08-29T00:45:21.451Z,100.0
2017-08-29T00:46:22.853Z,100.0
2017-08-29T00:47:24.225Z,100.0
2017-08-29T00:48:25.633Z,100.0
2017-08-29T00:49:27.009Z,100.0
2017-08-29T00:50:28.412Z,100.0
2017-08-29T00:51:29.784Z,100.0
2017-08-29T00:52:31.192Z,100.0
2017-08-29T00:53:32.566Z,100.0
2017-08-29T00:54:33.971Z,100.0
2017-08-29T00:55:35.360Z,100.0
2017-08-29T00:56:36.753Z,100.0
2017-08-29T00:57:38.123Z,100.0
2017-08-29T00:58:39.532Z,100.0
2017-08-29T00:59:40.906Z,100.0
2017-08-29T01:00:42.309Z,100.0
2017-08-29T01:01:43.688Z,100.0
2017-08-29T01:02:45.090Z,100.0
2017-08-29T01:03:46.462Z,100.0
2017-08-29T01:04:47.868Z,100.0
2017-08-29T01:05:49.242Z,100.0
2017-08-29T01:06:50.651Z,100.0
2017-08-29T01:07:52.024Z,100.0
2017-08-29T01:08:53.427Z,100.0
2017-08-29T01:09:54.803Z,100.0
2017-08-29T01:10:56.207Z,100.0
2017-08-29T01:11:57.580Z,100.0
2017-08-29T01:12:58.990Z,100.0
2017-08-29T01:14:00.356Z,100.0
2017-08-29T01:15:01.766Z,100.0
2017-08-29T01:16:03.143Z,100.0
2017-08-29T01:17:04.548Z,100.0
2017-08-29T01:18:05.917Z,100.0
2017-08-29T01:19:07.330Z,100.0
2017-08-29T01:20:08.698Z,100.0
2017-08-29T01:21:10.106Z,100.0
2017-08-29T01:22:11.477Z,100.0
2017-08-29T01:23:12.884Z,100.0
2017-08-29T01:24:14.261Z,100.0
2017-08-29T01:25:15.672Z,100.0
2017-08-29T01:26:17.044Z,100.0
2017-08-29T01:27:18.447Z,100.0
2017-08-29T01:28:19.819Z,100.0
2017-08-29T01:29:21.226Z,100.0
2017-08-29T01:30:22.603Z,100.0
2017-08-29T01:31:24.009Z,100.0
2017-08-29T01:32:25.387Z,100.0
2017-08-29T01:33:26.890Z,100.0
2017-08-29T01:34:28.244Z,100.0
2017-08-29T01:35:29.673Z,100.0
2017-08-29T01:36:31.048Z,100.0
2017-08-29T01:37:32.443Z,100.0
2017-08-29T01:38:33.822Z,100.0
2017-08-29T01:39:35.226Z,100.0
2017-08-29T01:40:36.597Z,100.0
2017-08-29T01:41:38.004Z,100.0
2017-08-29T01:42:39.381Z,100.0
2017-08-29T01:43:40.786Z,100.0
2017-08-29T01:44:42.160Z,100.0
2017-08-29T01:45:43.568Z,100.0
2017-08-29T01:46:44.953Z,100.0
2017-08-29T01:47:46.349Z,100.0
2017-08-29T01:48:47.721Z,100.0
2017-08-29T01:49:49.123Z,100.0
2017-08-29T01:50:50.497Z,100.0
2017-08-29T01:51:51.902Z,100.0
2017-08-29T01:52:53.279Z,100.0
2017-08-29T01:53:54.680Z,100.0
2017-08-29T01:54:56.069Z,100.0
2017-08-29T01:55:57.465Z,100.0
2017-08-29T01:56:58.837Z,100.0
2017-08-29T01:58:00.263Z,100.0
2017-08-29T01:59:01.616Z,100.0
2017-08-29T02:00:03.022Z,100.0
2017-08-29T02:01:04.397Z,100.0
2017-08-29T02:02:05.808Z,100.0
2017-08-29T02:03:07.178Z,100.0
2017-08-29T02:04:08.587Z,100.0
2017-08-29T02:05:09.957Z,100.0
2017-08-29T02:06:11.366Z,100.0
2017-08-29T02:07:12.751Z,100.0
2017-08-29T02:08:14.143Z,100.0
2017-08-29T02:09:15.553Z,100.0
2017-08-29T02:10:17.046Z,100.0
2017-08-29T02:11:18.421Z,100.0
2017-08-29T02:12:19.906Z,100.0
2017-08-29T02:13:21.280Z,100.0
2017-08-29T02:14:22.687Z,100.0
2017-08-29T02:15:24.058Z,100.0
2017-08-29T02:16:25.475Z,100.0
2017-08-29T02:17:26.937Z,100.0
2017-08-29T02:18:28.349Z,100.0
2017-08-29T02:19:29.724Z,100.0
2017-08-29T02:20:31.128Z,100.0
2017-08-29T02:21:32.501Z,100.0
2017-08-29T02:22:33.906Z,100.0
2017-08-29T02:23:35.279Z,100.0
2017-08-29T02:24:36.685Z,100.0
2017-08-29T02:25:38.060Z,100.0
2017-08-29T02:26:39.474Z,100.0
2017-08-29T02:27:40.846Z,100.0
2017-08-29T02:28:42.243Z,100.0
2017-08-29T02:29:43.618Z,100.0
2017-08-29T02:30:45.025Z,100.0
2017-08-29T02:31:46.453Z,100.0
2017-08-29T02:32:47.907Z,100.0
2017-08-29T02:33:49.305Z,100.0
2017-08-29T02:34:50.790Z,100.0
2017-08-29T02:35:52.166Z,100.0
2017-08-29T02:36:53.567Z,100.0
2017-08-29T02:37:54.955Z,100.0
2017-08-29T02:38:56.349Z,100.0
2017-08-29T02:39:57.723Z,100.0
2017-08-29T02:40:59.133Z,100.0
2017-08-29T02:42:00.506Z,100.0
2017-08-29T02:43:01.906Z,100.0
2017-08-29T02:44:03.285Z,100.0
2017-08-29T02:45:04.688Z,100.0
2017-08-29T02:46:06.059Z,100.0
2017-08-29T02:47:07.468Z,100.0
2017-08-29T02:48:08.841Z,100.0
2017-08-29T02:49:10.253Z,100.0
2017-08-29T02:50:11.632Z,100.0
2017-08-29T02:51:13.031Z,100.0
2017-08-29T02:52:14.405Z,100.0
2017-08-29T02:53:15.811Z,100.0
2017-08-29T02:54:17.183Z,100.0
2017-08-29T02:55:18.589Z,100.0
2017-08-29T02:56:19.962Z,100.0
2017-08-29T02:57:21.366Z,100.0
2017-08-29T02:58:22.747Z,100.0
2017-08-29T02:59:24.146Z,100.0
2017-08-29T03:00:25.519Z,100.0
2017-08-29T03:01:26.924Z,100.0
2017-08-29T03:02:28.297Z,100.0
2017-08-29T03:03:29.705Z,100.0
2017-08-29T03:04:31.079Z,100.0
2017-08-29T03:05:32.485Z,100.0
2017-08-29T03:06:33.859Z,100.0
2017-08-29T03:07:35.264Z,100.0
2017-08-29T03:08:36.637Z,100.0
2017-08-29T03:09:38.044Z,100.0
2017-08-29T03:10:39.420Z,100.0
2017-08-29T03:11:40.825Z,100.0
2017-08-29T03:12:42.197Z,100.0
2017-08-29T03:13:43.603Z,100.0
2017-08-29T03:14:44.981Z,100.0
2017-08-29T03:15:46.385Z,100.0
2017-08-29T03:16:47.760Z,100.0
2017-08-29T03:17:49.164Z,100.0
2017-08-29T03:18:50.535Z,100.0
2017-08-29T03:19:51.942Z,100.0
2017-08-29T03:20:53.310Z,100.0
2017-08-29T03:21:54.726Z,100.0
2017-08-29T03:22:56.101Z,100.0
2017-08-29T03:23:57.502Z,100.0
2017-08-29T03:24:58.874Z,100.0
2017-08-29T03:26:00.281Z,100.0
2017-08-29T03:27:01.654Z,100.0
2017-08-29T03:28:03.087Z,100.0
2017-08-29T03:29:04.456Z,100.0
2017-08-29T03:30:05.846Z,100.0
2017-08-29T03:31:07.216Z,100.0
2017-08-29T03:32:08.628Z,100.0
2017-08-29T03:33:10.020Z,100.0
2017-08-29T03:34:11.404Z,100.0
2017-08-29T03:35:12.775Z,100.0
2017-08-29T03:36:14.185Z,100.0
2017-08-29T03:37:15.554Z,100.0
2017-08-29T03:38:16.965Z,100.0
2017-08-29T03:39:18.342Z,100.0
2017-08-29T03:40:19.741Z,100.0
2017-08-29T03:41:21.112Z,100.0
2017-08-29T03:42:22.549Z,100.0
2017-08-29T03:43:23.893Z,100.0
2017-08-29T03:44:25.301Z,100.0
2017-08-29T03:45:26.677Z,100.0
2017-08-29T03:46:28.081Z,100.0
2017-08-29T03:47:29.456Z,100.0
2017-08-29T03:48:30.858Z,100.0
2017-08-29T03:49:32.231Z,100.0
2017-08-29T03:50:33.640Z,100.0
2017-08-29T03:51:35.008Z,100.0
2017-08-29T03:52:36.418Z,100.0
2017-08-29T03:53:37.791Z,100.0
2017-08-29T03:54:39.198Z,100.0
2017-08-29T03:55:40.573Z,100.0
2017-08-29T03:56:41.985Z,100.0
2017-08-29T03:57:43.373Z,100.0
2017-08-29T03:58:44.859Z,100.0
2017-08-29T03:59:46.237Z,100.0
2017-08-29T04:00:47.637Z,100.0
2017-08-29T04:01:49.016Z,100.0
2017-08-29T04:02:50.418Z,100.0
2017-08-29T04:03:51.790Z,100.0
2017-08-29T04:04:53.202Z,100.0
2017-08-29T04:05:54.572Z,100.0
2017-08-29T04:06:55.975Z,100.0
2017-08-29T04:07:57.351Z,100.0
2017-08-29T04:08:58.760Z,100.0
2017-08-29T04:10:00.132Z,100.0
2017-08-29T04:11:01.544Z,100.0
2017-08-29T04:12:02.916Z,100.0
2017-08-29T04:13:04.294Z,100.0
2017-08-29T04:14:05.666Z,100.0
2017-08-29T04:15:07.099Z,100.0
2017-08-29T04:16:08.479Z,100.0
2017-08-29T04:17:09.879Z,100.0
2017-08-29T04:18:11.253Z,100.0
2017-08-29T04:19:12.658Z,100.0
2017-08-29T04:20:14.031Z,100.0
2017-08-29T04:21:15.441Z,100.0
2017-08-29T04:22:16.818Z,100.0
2017-08-29T04:23:18.219Z,100.0
2017-08-29T04:24:19.602Z,100.0
2017-08-29T04:25:20.998Z,100.0
2017-08-29T04:26:22.380Z,100.0
2017-08-29T04:27:23.778Z,100.0
2017-08-29T04:28:25.152Z,100.0
2017-08-29T04:29:26.558Z,100.0
2017-08-29T04:30:27.938Z,100.0
2017-08-29T04:31:29.339Z,100.0
2017-08-29T04:32:30.716Z,100.0
2017-08-29T04:33:32.132Z,100.0
2017-08-29T04:34:33.507Z,100.0
2017-08-29T04:35:34.902Z,100.0
2017-08-29T04:36:36.288Z,100.0
2017-08-29T04:37:37.679Z,100.0
2017-08-29T04:38:39.061Z,100.0
2017-08-29T04:39:40.465Z,100.0
2017-08-29T04:40:41.837Z,100.0
2017-08-29T04:41:43.238Z,100.0
2017-08-29T04:42:44.612Z,100.0
2017-08-29T04:43:46.016Z,100.0
2017-08-29T04:44:47.393Z,100.0
2017-08-29T04:45:48.797Z,100.0
2017-08-29T04:46:50.169Z,100.0
2017-08-29T04:47:51.577Z,100.0
2017-08-29T04:48:52.974Z,100.0
2017-08-29T04:49:54.461Z,100.0
2017-08-29T04:50:55.838Z,100.0
2017-08-29T04:51:57.244Z,100.0
2017-08-29T04:52:58.618Z,100.0
2017-08-29T04:54:01.042Z,100.0
2017-08-29T04:55:02.436Z,100.0
2017-08-29T04:56:03.828Z,100.0
2017-08-29T04:57:05.205Z,100.0
2017-08-29T04:58:06.619Z,100.0
2017-08-29T04:59:08.029Z,100.0
2017-08-29T05:00:09.482Z,100.0
2017-08-29T05:01:10.860Z,100.0
2017-08-29T05:02:12.270Z,100.0
2017-08-29T05:03:13.644Z,100.0
2017-08-29T05:04:15.033Z,100.0
2017-08-29T05:05:16.420Z,100.0
2017-08-29T05:06:17.820Z,100.0
2017-08-29T05:07:19.204Z,100.0
2017-08-29T05:08:20.598Z,100.0
2017-08-29T05:09:21.976Z,100.0
2017-08-29T05:10:23.386Z,100.0
2017-08-29T05:11:24.791Z,100.0
2017-08-29T05:12:26.158Z,100.0
2017-08-29T05:13:27.537Z,100.0
2017-08-29T05:14:28.956Z,100.0
2017-08-29T05:15:30.351Z,100.0
2017-08-29T05:16:31.826Z,100.0
2017-08-29T05:17:33.202Z,100.0
2017-08-29T05:18:34.641Z,100.0
2017-08-29T05:19:36.025Z,100.0
2017-08-29T05:20:37.479Z,100.0
2017-08-29T05:21:38.861Z,100.0
2017-08-29T05:22:40.261Z,100.0
2017-08-29T05:23:41.644Z,100.0
2017-08-29T05:24:43.056Z,100.0
2017-08-29T05:25:44.424Z,100.0
2017-08-29T05:26:45.821Z,100.0
2017-08-29T05:27:47.199Z,100.0
2017-08-29T05:28:48.612Z,100.0
2017-08-29T05:29:49.980Z,100.0
2017-08-29T05:30:51.397Z,100.0
2017-08-29T05:31:52.770Z,100.0
2017-08-29T05:32:54.264Z,100.0
2017-08-29T05:33:55.646Z,100.0
2017-08-29T05:34:57.046Z,100.0
2017-08-29T05:35:58.433Z,100.0
2017-08-29T05:36:59.824Z,100.0
2017-08-29T05:38:01.225Z,100.0
2017-08-29T05:39:02.705Z,100.0
2017-08-29T05:40:04.082Z,100.0
2017-08-29T05:41:05.494Z,100.0
2017-08-29T05:42:06.866Z,100.0
2017-08-29T05:43:08.268Z,100.0
2017-08-29T05:44:09.645Z,100.0
2017-08-29T05:45:11.049Z,100.0
2017-08-29T05:46:12.426Z,100.0
2017-08-29T05:47:13.826Z,100.0
2017-08-29T05:48:15.205Z,100.0
2017-08-29T05:49:16.605Z,100.0
2017-08-29T05:50:17.986Z,100.0
2017-08-29T05:51:19.388Z,100.0
2017-08-29T05:52:20.765Z,100.0
2017-08-29T05:53:22.174Z,100.0
2017-08-29T05:54:23.563Z,100.0
2017-08-29T05:55:25.053Z,100.0
2017-08-29T05:56:26.455Z,100.0
2017-08-29T05:57:27.853Z,100.0
2017-08-29T05:58:29.233Z,100.0
2017-08-29T05:59:30.620Z,100.0
2017-08-29T06:00:32.001Z,100.0
2017-08-29T06:01:33.390Z,100.0
2017-08-29T06:02:34.771Z,100.0
2017-08-29T06:03:36.158Z,100.0
2017-08-29T06:04:37.538Z,100.0
2017-08-29T06:05:38.931Z,100.0
2017-08-29T06:06:40.312Z,100.0
2017-08-29T06:07:41.698Z,100.0
2017-08-29T06:08:43.087Z,100.0
2017-08-29T06:09:44.477Z,100.0
2017-08-29T06:10:45.879Z,100.0
2017-08-29T06:11:47.273Z,100.0
2017-08-29T06:12:48.675Z,100.0
2017-08-29T06:13:51.084Z,100.0
2017-08-29T06:14:52.483Z,100.0
2017-08-29T06:15:53.875Z,100.0
2017-08-29T06:16:55.254Z,100.0
2017-08-29T06:17:56.703Z,100.0
2017-08-29T06:18:58.090Z,100.0
2017-08-29T06:19:59.470Z,100.0
2017-08-29T06:21:00.849Z,100.0
2017-08-29T06:22:02.230Z,100.0
2017-08-29T06:23:03.622Z,100.0
2017-08-29T06:24:05.020Z,100.0
2017-08-29T06:25:06.406Z,100.0
2017-08-29T06:26:07.957Z,100.0
2017-08-29T06:27:09.339Z,100.0
2017-08-29T06:28:10.795Z,100.0
2017-08-29T06:29:12.181Z,100.0
2017-08-29T06:30:13.571Z,100.0
2017-08-29T06:31:14.944Z,100.0
2017-08-29T06:32:16.360Z,100.0
2017-08-29T06:33:17.726Z,100.0
2017-08-29T06:34:19.125Z,100.0
2017-08-29T06:35:20.508Z,100.0
2017-08-29T06:36:21.908Z,100.0
2017-08-29T06:37:23.317Z,100.0
2017-08-29T06:38:24.717Z,100.0
2017-08-29T06:39:26.114Z,100.0
2017-08-29T06:40:27.526Z,100.0
2017-08-29T06:41:28.904Z,100.0
2017-08-29T06:42:30.295Z,100.0
2017-08-29T06:43:31.688Z,100.0
2017-08-29T06:44:33.146Z,100.0
2017-08-29T06:45:34.526Z,100.0
2017-08-29T06:46:35.964Z,100.0
2017-08-29T06:47:37.355Z,100.0
2017-08-29T06:48:38.742Z,100.0
2017-08-29T06:49:40.144Z,100.0
2017-08-29T06:50:41.566Z,100.0
2017-08-29T06:51:42.964Z,100.0
2017-08-29T06:52:44.353Z,100.0
2017-08-29T06:53:45.740Z,100.0
2017-08-29T06:54:47.211Z,100.0
2017-08-29T06:55:48.605Z,100.0
2017-08-29T06:56:49.996Z,100.0
2017-08-29T06:57:51.399Z,100.0
2017-08-29T06:58:52.800Z,100.0
2017-08-29T06:59:54.247Z,100.0
2017-08-29T07:00:55.617Z,98.6
2017-08-29T07:01:57.018Z,95.1
2017-08-29T07:02:58.405Z,92.5
2017-08-29T07:03:59.787Z,93.7
2017-08-29T07:05:01.183Z,93.5
2017-08-29T07:06:02.606Z,94.0
2017-08-29T07:07:04.003Z,91.7
2017-08-29T07:08:05.386Z,93.4
2017-08-29T07:09:06.777Z,89.1
2017-08-29T07:10:08.158Z,90.8
2017-08-29T07:11:09.552Z,87.4
2017-08-29T07:12:10.939Z,88.1
2017-08-29T07:13:12.329Z,88.0
2017-08-29T07:14:13.847Z,86.1
2017-08-29T07:15:15.360Z,83.3
2017-08-29T07:16:16.772Z,82.5
2017-08-29T07:17:18.193Z,82.1
2017-08-29T07:18:19.570Z,82.0
2017-08-29T07:19:20.995Z,81.2
2017-08-29T07:20:22.380Z,80.5
2017-08-29T07:21:23.781Z,81.4
2017-08-29T07:22:25.170Z,81.4
2017-08-29T07:23:26.571Z,80.8
2017-08-29T07:24:27.957Z,80.1
2017-08-29T07:25:29.363Z,79.1
2017-08-29T07:26:30.747Z,78.3
2017-08-29T07:27:32.420Z,78.5
2017-08-29T07:28:33.803Z,80.6
2017-08-29T07:29:35.315Z,79.3
2017-08-29T07:30:36.866Z,79.5
2017-08-29T07:31:38.252Z,77.9
2017-08-29T07:32:39.640Z,78.4
2017-08-29T07:33:41.147Z,79.2
2017-08-29T07:34:42.556Z,75.0
2017-08-29T07:35:43.953Z,76.0
2017-08-29T07:36:45.351Z,75.1
2017-08-29T07:37:46.748Z,76.4
2017-08-29T07:38:48.267Z,74.4
2017-08-29T07:39:49.686Z,75.8
2017-08-29T07:40:51.222Z,73.8
2017-08-29T07:41:52.685Z,75.2
2017-08-29T07:42:54.087Z,75.0
2017-08-29T07:43:55.480Z,75.8
2017-08-29T07:44:56.867Z,74.9
2017-08-29T07:45:58.256Z,73.1
2017-08-29T07:46:59.642Z,72.2
2017-08-29T07:48:01.039Z,73.9
2017-08-29T07:49:02.454Z,73.8
2017-08-29T07:50:03.849Z,75.7
2017-08-29T07:51:05.238Z,70.5
2017-08-29T07:52:06.626Z,71.0
2017-08-29T07:53:08.025Z,70.3
2017-08-29T07:54:09.420Z,70.1
2017-08-29T07:55:10.805Z,69.8
2017-08-29T07:56:12.211Z,68.7
2017-08-29T07:57:13.597Z,70.0
2017-08-29T07:58:14.985Z,70.5
2017-08-29T07:59:16.383Z,68.0
2017-08-29T08:00:17.782Z,67.6
2017-08-29T08:01:19.174Z,67.2
2017-08-29T08:02:20.568Z,67.6
2017-08-29T08:03:22.070Z,67.2
2017-08-29T08:04:23.468Z,65.7
2017-08-29T08:05:24.872Z,65.8
2017-08-29T08:06:26.338Z,66.9
2017-08-29T08:07:27.808Z,65.8
2017-08-29T08:08:29.212Z,66.5
2017-08-29T08:09:30.606Z,67.2
2017-08-29T08:10:32.004Z,64.8
2017-08-29T08:11:33.397Z,63.8
2017-08-29T08:12:34.793Z,63.8
2017-08-29T08:13:36.179Z,63.4
2017-08-29T08:14:39.048Z,62.3
2017-08-29T08:15:40.412Z,62.9
2017-08-29T08:16:41.828Z,62.4
2017-08-29T08:17:43.221Z,62.6
2017-08-29T08:18:44.618Z,62.3
2017-08-29T08:19:46.004Z,61.8
2017-08-29T08:20:47.392Z,61.8
2017-08-29T08:21:49.034Z,61.6
2017-08-29T08:22:50.463Z,63.2
2017-08-29T08:23:51.849Z,62.0
2017-08-29T08:24:53.273Z,59.5
2017-08-29T08:25:54.653Z,60.4
2017-08-29T08:26:56.055Z,59.5
2017-08-29T08:27:57.559Z,59.6
2017-08-29T08:28:58.980Z,58.6
2017-08-29T08:30:00.369Z,59.5
2017-08-29T08:31:01.760Z,59.5
2017-08-29T08:32:03.157Z,59.3
2017-08-29T08:33:04.549Z,58.3
2017-08-29T08:34:05.972Z,59.7
2017-08-29T08:35:07.340Z,59.4
2017-08-29T08:36:08.725Z,58.0
2017-08-29T08:37:10.116Z,58.9
2017-08-29T08:38:11.508Z,57.8
2017-08-29T08:39:12.903Z,58.1
2017-08-29T08:40:14.287Z,57.6
2017-08-29T08:41:15.699Z,59.5
2017-08-29T08:42:17.122Z,58.2
2017-08-29T08:43:18.484Z,57.1
2017-08-29T08:44:19.873Z,56.7
2017-08-29T08:45:21.266Z,56.4
2017-08-29T08:46:22.652Z,56.2
2017-08-29T08:47:24.048Z,56.7
2017-08-29T08:48:25.437Z,56.6
2017-08-29T08:49:26.834Z,56.0
2017-08-29T08:50:28.221Z,55.7
2017-08-29T08:51:29.615Z,55.0
2017-08-29T08:52:31.002Z,55.1
2017-08-29T08:53:32.395Z,55.2
2017-08-29T08:54:33.785Z,56.0
2017-08-29T08:55:35.189Z,55.0
2017-08-29T08:56:36.646Z,54.6
2017-08-29T08:57:39.039Z,54.1
2017-08-29T08:58:40.427Z,54.3
2017-08-29T08:59:41.774Z,54.8
2017-08-29T09:00:43.166Z,53.5
2017-08-29T09:01:44.560Z,53.5
2017-08-29T09:02:45.955Z,54.1
2017-08-29T09:03:47.352Z,53.8
2017-08-29T09:04:48.739Z,53.5
2017-08-29T09:05:50.137Z,53.8
2017-08-29T09:06:51.545Z,54.3
2017-08-29T09:07:52.936Z,53.4
2017-08-29T09:08:54.439Z,52.9
2017-08-29T09:09:55.823Z,52.6
2017-08-29T09:10:57.212Z,53.0
2017-08-29T09:11:58.609Z,52.4
2017-08-29T09:12:59.995Z,53.0
2017-08-29T09:14:01.400Z,53.4
2017-08-29T09:15:02.782Z,53.2
2017-08-29T09:16:04.184Z,52.4
2017-08-29T09:17:05.570Z,51.0
2017-08-29T09:18:06.970Z,50.3
2017-08-29T09:19:08.383Z,50.4
2017-08-29T09:20:09.747Z,51.5
2017-08-29T09:21:11.136Z,50.3
2017-08-29T09:22:12.567Z,50.2
2017-08-29T09:23:14.030Z,49.5
2017-08-29T09:24:15.429Z,49.9
2017-08-29T09:25:16.900Z,50.9
2017-08-29T09:26:18.248Z,49.5
2017-08-29T09:27:19.632Z,50.7
2017-08-29T09:28:21.036Z,49.6
2017-08-29T09:29:22.425Z,49.9
2017-08-29T09:30:23.861Z,48.7
2017-08-29T09:31:25.251Z,49.7
2017-08-29T09:32:26.647Z,48.7
2017-08-29T09:33:28.044Z,49.0
2017-08-29T09:34:29.432Z,49.1
2017-08-29T09:35:30.920Z,48.9
2017-08-29T09:36:32.313Z,49.8
2017-08-29T09:37:33.707Z,48.8
2017-08-29T09:38:35.106Z,48.9
2017-08-29T09:39:36.499Z,49.1
2017-08-29T09:40:37.890Z,48.9
2017-08-29T09:41:39.325Z,48.9
2017-08-29T09:42:40.776Z,48.9
2017-08-29T09:43:42.184Z,48.5
2017-08-29T09:44:43.573Z,48.7
2017-08-29T09:45:46.890Z,49.0
2017-08-29T09:46:48.307Z,48.5
2017-08-29T09:47:49.710Z,49.3
2017-08-29T09:48:51.233Z,48.7
2017-08-29T09:49:52.625Z,49.2
2017-08-29T09:50:54.018Z,48.7
2017-08-29T09:51:55.405Z,48.1
2017-08-29T09:52:56.808Z,47.9
2017-08-29T09:53:58.200Z,48.3
2017-08-29T09:54:59.594Z,47.7
2017-08-29T09:56:00.980Z,47.2
2017-08-29T09:57:02.378Z,47.2
2017-08-29T09:58:03.766Z,47.7
2017-08-29T09:59:05.164Z,47.6
2017-08-29T10:00:06.685Z,46.7
2017-08-29T10:01:08.098Z,46.6
2017-08-29T10:02:09.487Z,47.1
2017-08-29T10:03:10.887Z,46.7
2017-08-29T10:04:12.278Z,46.4
2017-08-29T10:05:13.680Z,46.1
2017-08-29T10:06:15.072Z,47.1
2017-08-29T10:07:16.474Z,46.5
2017-08-29T10:08:17.864Z,47.1
2017-08-29T10:09:19.260Z,46.5
2017-08-29T10:10:20.648Z,46.9
2017-08-29T10:11:22.045Z,44.1
2017-08-29T10:12:23.451Z,45.6
2017-08-29T10:13:24.882Z,44.3
2017-08-29T10:14:26.274Z,44.3
2017-08-29T10:15:27.730Z,43.5
2017-08-29T10:16:29.134Z,42.9
2017-08-29T10:17:30.529Z,43.9
2017-08-29T10:18:31.919Z,42.7
2017-08-29T10:19:33.432Z,42.3
2017-08-29T10:20:34.812Z,43.2
2017-08-29T10:21:36.209Z,42.5
2017-08-29T10:22:37.606Z,42.0
2017-08-29T10:23:39.007Z,41.6
2017-08-29T10:24:40.503Z,42.1
2017-08-29T10:25:42.005Z,43.8
2017-08-29T10:26:43.402Z,43.3
2017-08-29T10:27:44.853Z,41.9
2017-08-29T10:28:46.215Z,41.1
2017-08-29T10:29:47.660Z,42.2
2017-08-29T10:30:49.054Z,42.7
2017-08-29T10:31:50.444Z,42.1
2017-08-29T10:32:51.836Z,42.1
2017-08-29T10:33:53.231Z,42.0
2017-08-29T10:34:54.619Z,41.5
2017-08-29T10:35:56.029Z,40.1
2017-08-29T10:36:57.422Z,41.9
2017-08-29T10:37:58.824Z,41.7
2017-08-29T10:39:00.210Z,40.4
2017-08-29T10:40:01.642Z,40.5
2017-08-29T10:41:03.035Z,42.0
2017-08-29T10:42:04.434Z,41.2
2017-08-29T10:43:05.828Z,42.4
2017-08-29T10:44:07.233Z,42.1
2017-08-29T10:45:08.621Z,41.0
2017-08-29T10:46:10.020Z,41.7
2017-08-29T10:47:11.418Z,40.1
2017-08-29T10:48:12.823Z,40.6
2017-08-29T10:49:14.236Z,40.5
2017-08-29T10:50:15.635Z,41.4
2017-08-29T10:51:17.030Z,40.1
2017-08-29T10:52:18.422Z,40.4
2017-08-29T10:53:19.814Z,38.2
2017-08-29T10:54:21.220Z,39.6
2017-08-29T10:55:22.615Z,37.5
2017-08-29T10:56:24.020Z,38.7
2017-08-29T10:57:25.409Z,38.5
2017-08-29T10:58:26.805Z,37.1
2017-08-29T10:59:28.317Z,37.4
2017-08-29T11:00:29.719Z,36.9
2017-08-29T11:01:31.115Z,37.9
2017-08-29T11:02:32.547Z,38.5
2017-08-29T11:03:33.941Z,37.5
2017-08-29T11:04:35.340Z,36.2
2017-08-29T11:05:36.738Z,37.0
2017-08-29T11:06:38.143Z,35.9
2017-08-29T11:07:39.529Z,35.6
2017-08-29T11:08:40.931Z,35.8
2017-08-29T11:09:42.328Z,36.4
2017-08-29T11:10:43.733Z,37.5
2017-08-29T11:11:45.162Z,37.0
2017-08-29T11:12:46.567Z,36.5
2017-08-29T11:13:47.960Z,34.8
2017-08-29T11:14:49.363Z,34.2
2017-08-29T11:15:50.861Z,34.4
2017-08-29T11:16:52.292Z,34.4
2017-08-29T11:17:53.729Z,33.3
2017-08-29T11:18:55.139Z,35.2
2017-08-29T11:19:56.535Z,35.1
2017-08-29T11:20:57.942Z,35.1
2017-08-29T11:21:59.333Z,36.4
2017-08-29T11:23:00.730Z,35.9
2017-08-29T11:24:02.128Z,35.5
2017-08-29T11:25:03.527Z,35.1
2017-08-29T11:26:04.921Z,35.1
2017-08-29T11:27:06.325Z,35.6
2017-08-29T11:28:07.766Z,35.8
2017-08-29T11:29:09.182Z,36.9
2017-08-29T11:30:10.597Z,34.5
2017-08-29T11:31:12.253Z,34.2
2017-08-29T11:32:13.611Z,35.3
2017-08-29T11:33:15.042Z,33.8
2017-08-29T11:34:16.512Z,35.0
2017-08-29T11:35:17.942Z,35.2
2017-08-29T11:36:19.341Z,35.6
2017-08-29T11:37:20.767Z,34.1
2017-08-29T11:38:22.172Z,33.7
2017-08-29T11:39:23.654Z,35.0
2017-08-29T11:40:25.054Z,34.1
2017-08-29T11:41:26.558Z,34.6
2017-08-29T11:42:27.964Z,34.3
2017-08-29T11:43:29.417Z,33.7
2017-08-29T11:44:30.812Z,33.6
2017-08-29T11:45:32.293Z,33.2
2017-08-29T11:46:33.790Z,33.8
2017-08-29T11:47:35.506Z,35.0
2017-08-29T11:48:37.368Z,34.0
2017-08-29T11:49:38.979Z,34.3
2017-08-29T11:50:40.369Z,34.8
2017-08-29T11:51:41.854Z,34.4
2017-08-29T11:52:43.263Z,34.6
2017-08-29T11:53:44.742Z,34.7
2017-08-29T11:54:46.138Z,34.4
2017-08-29T11:55:47.617Z,34.8
2017-08-29T11:56:49.020Z,35.1
2017-08-29T11:57:50.508Z,35.2
2017-08-29T11:58:51.916Z,34.9
2017-08-29T11:59:53.391Z,34.8
2017-08-29T12:00:54.855Z,34.1
2017-08-29T12:01:56.632Z,33.8
2017-08-29T12:02:58.086Z,35.1
2017-08-29T12:03:59.843Z,34.4
2017-08-29T12:05:01.254Z,34.7
2017-08-29T12:06:02.947Z,34.0
2017-08-29T12:07:04.344Z,34.7
2017-08-29T12:08:05.818Z,34.2
2017-08-29T12:09:07.212Z,34.0
2017-08-29T12:10:08.700Z,32.5
2017-08-29T12:11:10.097Z,32.9
2017-08-29T12:12:11.586Z,33.1
2017-08-29T12:13:12.973Z,33.2
2017-08-29T12:14:14.461Z,32.8
2017-08-29T12:15:15.989Z,33.0
2017-08-29T12:16:17.653Z,33.8
2017-08-29T12:17:19.076Z,32.7
2017-08-29T12:18:20.533Z,33.9
2017-08-29T12:19:21.922Z,32.4
2017-08-29T12:20:23.412Z,32.9
2017-08-29T12:21:24.804Z,33.0
2017-08-29T12:22:26.291Z,31.6
2017-08-29T12:23:27.728Z,31.6
2017-08-29T12:24:29.172Z,31.1
2017-08-29T12:25:30.569Z,31.7
2017-08-29T12:26:32.120Z,31.7
2017-08-29T12:27:33.543Z,31.7
2017-08-29T12:28:35.242Z,31.2
2017-08-29T12:29:36.769Z,31.0
2017-08-29T12:30:38.489Z,31.0
2017-08-29T12:31:39.888Z,31.1
2017-08-29T12:32:41.309Z,29.7
2017-08-29T12:33:42.702Z,30.0
2017-08-29T12:34:44.188Z,30.6
2017-08-29T12:35:45.578Z,30.4
2017-08-29T12:36:47.068Z,30.3
2017-08-29T12:37:48.476Z,30.0
2017-08-29T12:38:49.987Z,31.5
2017-08-29T12:39:51.380Z,30.4
2017-08-29T12:40:52.842Z,30.3
2017-08-29T12:41:54.220Z,29.9
2017-08-29T12:42:55.712Z,29.6
2017-08-29T12:43:57.108Z,30.3
2017-08-29T12:44:58.650Z,29.9
2017-08-29T12:46:00.297Z,29.5
2017-08-29T12:47:03.013Z,29.5
2017-08-29T12:48:04.399Z,29.9
2017-08-29T12:49:05.888Z,29.5
2017-08-29T12:50:07.279Z,29.6
2017-08-29T12:51:08.767Z,30.9
2017-08-29T12:52:10.181Z,31.0
2017-08-29T12:53:11.694Z,30.4
2017-08-29T12:54:13.087Z,30.4
2017-08-29T12:55:14.530Z,30.5
2017-08-29T12:56:15.923Z,29.9
2017-08-29T12:57:17.445Z,30.6
2017-08-29T12:58:18.947Z,31.2
2017-08-29T12:59:20.609Z,30.3
2017-08-29T13:00:22.001Z,30.0
2017-08-29T13:01:24.751Z,30.9
2017-08-29T13:02:26.143Z,30.5
2017-08-29T13:03:27.588Z,30.4
2017-08-29T13:04:28.978Z,30.9
2017-08-29T13:05:30.511Z,31.8
2017-08-29T13:06:31.904Z,31.5
2017-08-29T13:07:33.349Z,29.3
2017-08-29T13:08:34.879Z,29.4
2017-08-29T13:09:36.559Z,29.4
2017-08-29T13:10:37.952Z,29.2
2017-08-29T13:11:39.420Z,30.5
2017-08-29T13:12:40.807Z,29.2
2017-08-29T13:13:42.325Z,29.8
2017-08-29T13:14:43.716Z,28.9
2017-08-29T13:15:45.183Z,27.8
2017-08-29T13:16:46.581Z,28.7
2017-08-29T13:17:48.068Z,28.3
2017-08-29T13:18:49.544Z,27.9
2017-08-29T13:19:50.941Z,28.5
2017-08-29T13:20:52.355Z,28.2
2017-08-29T13:21:53.819Z,27.6
2017-08-29T13:22:55.205Z,28.8